Aviation Digital Data Service (ADDS)

Output produced by METARs form (1910 UTC 25 June 2017)
found at http://www.aviationweather.gov/adds/metars/
 
FKKD 251900Z VRB02KT 9999 BKN013 FEW016CB 27/25 Q1010 NOSIG
TAF FKKD 251700Z 2518/2624 23004KT 9999 BKN016 FEW020CB 
     TEMPO 2520/2606 TS BKN013 FEW016CB 
     PROB30 
     TEMPO 2522/2606 4000 TSRA
       
FKKR 251900Z 30004KT CAVOK 30/24 Q1010 NOSIG
FKKN 251700Z 28004KT 9999 TS SCT020 FEW023CB 25/21 Q1016
FKYS 251900Z 29004KT 260V320 9999 TS SCT010 FEW023CB 24/22 Q1014 NOSIG
TAF FKYS 251700Z 2518/2618 25005KT 9999 BKN016 FEW020CB 
     TEMPO 2518/2521 TS 
     BECMG 2521/2523 FEW003 BKN006 
     PROB30 2604/2607 3000 BR 
     BECMG 2607/2609 BKN016